createdAt,value
2018-03-29T00:00:06.280Z,994.91
2018-03-29T00:01:06.273Z,994.90
2018-03-29T00:02:59.181Z,994.96
2018-03-29T00:03:59.196Z,994.93
2018-03-29T00:05:52.110Z,995.01
2018-03-29T00:06:52.104Z,994.95
2018-03-29T00:08:45.033Z,995.00
2018-03-29T00:09:45.019Z,995.06
2018-03-29T00:11:37.932Z,995.00
2018-03-29T00:12:37.928Z,995.02
2018-03-29T00:14:30.845Z,995.04
2018-03-29T00:15:30.837Z,995.00
2018-03-29T00:17:23.735Z,995.12
2018-03-29T00:18:23.750Z,994.72
2018-03-29T00:20:16.667Z,995.11
2018-03-29T00:21:16.662Z,995.26
2018-03-29T00:23:09.558Z,995.18
2018-03-29T00:24:09.572Z,995.21
2018-03-29T00:26:02.488Z,995.25
2018-03-29T00:27:02.482Z,995.26
2018-03-29T00:28:55.379Z,995.29
2018-03-29T00:29:55.393Z,995.32
2018-03-29T00:31:48.312Z,995.35
2018-03-29T00:32:48.304Z,995.36
2018-03-29T00:34:41.222Z,995.24
2018-03-29T00:35:41.211Z,995.42
2018-03-29T00:37:34.109Z,995.46
2018-03-29T00:38:34.124Z,995.47
2018-03-29T00:40:27.040Z,995.53
2018-03-29T00:41:27.036Z,995.52
2018-03-29T00:43:19.944Z,995.58
2018-03-29T00:44:19.962Z,995.55
2018-03-29T00:46:12.883Z,995.61
2018-03-29T00:47:12.872Z,995.65
2018-03-29T00:49:05.767Z,995.65
2018-03-29T00:50:05.781Z,995.66
2018-03-29T00:51:58.697Z,995.73
2018-03-29T00:52:58.693Z,995.71
2018-03-29T00:54:51.588Z,995.76
2018-03-29T00:55:51.603Z,995.79
2018-03-29T00:57:44.519Z,995.80
2018-03-29T00:58:44.514Z,995.84
2018-03-29T01:00:37.429Z,995.86
2018-03-29T01:01:37.424Z,995.88
2018-03-29T01:03:30.340Z,995.88
2018-03-29T01:04:30.335Z,995.88
2018-03-29T01:06:23.260Z,995.90
2018-03-29T01:07:23.254Z,995.92
2018-03-29T01:09:16.150Z,995.92
2018-03-29T01:10:16.162Z,995.91
2018-03-29T01:12:09.077Z,995.93
2018-03-29T01:13:09.072Z,995.93
2018-03-29T01:15:01.969Z,995.90
2018-03-29T01:16:01.990Z,995.93
2018-03-29T01:17:54.897Z,995.97
2018-03-29T01:18:54.891Z,995.99
2018-03-29T01:20:47.788Z,996.01
2018-03-29T01:21:47.802Z,996.00
2018-03-29T01:23:40.716Z,996.06
2018-03-29T01:24:40.712Z,996.05
2018-03-29T01:26:33.646Z,996.05
2018-03-29T01:27:33.626Z,996.03
2018-03-29T01:29:26.519Z,996.09
2018-03-29T01:30:26.535Z,996.10
2018-03-29T01:32:19.460Z,996.11
2018-03-29T01:33:19.444Z,996.12
2018-03-29T01:35:12.340Z,996.14
2018-03-29T01:36:12.354Z,996.11
2018-03-29T01:38:05.266Z,996.14
2018-03-29T01:39:05.265Z,996.14
2018-03-29T01:40:58.157Z,996.19
2018-03-29T01:41:58.174Z,996.22
2018-03-29T01:43:51.085Z,996.26
2018-03-29T01:44:51.082Z,996.27
2018-03-29T01:46:43.983Z,996.29
2018-03-29T01:47:43.999Z,996.25
2018-03-29T01:49:36.913Z,996.29
2018-03-29T01:50:36.914Z,996.27
2018-03-29T01:52:29.843Z,996.35
2018-03-29T01:53:29.823Z,996.28
2018-03-29T01:55:22.716Z,996.36
2018-03-29T01:56:22.732Z,996.38
2018-03-29T01:58:15.654Z,996.41
2018-03-29T01:59:15.644Z,996.41
2018-03-29T02:01:08.601Z,996.43
2018-03-29T02:02:08.554Z,996.46
2018-03-29T02:04:01.470Z,996.52
2018-03-29T02:05:01.465Z,996.52
2018-03-29T02:06:54.360Z,996.55
2018-03-29T02:07:54.375Z,996.59
2018-03-29T02:09:47.287Z,996.56
2018-03-29T02:10:47.302Z,996.50
2018-03-29T02:12:40.259Z,996.61
2018-03-29T02:13:40.206Z,996.62
2018-03-29T02:15:33.094Z,996.70
2018-03-29T02:16:33.110Z,996.66
2018-03-29T02:18:26.026Z,996.66
2018-03-29T02:19:26.018Z,996.65
2018-03-29T02:21:18.920Z,996.65
2018-03-29T02:22:18.931Z,996.70
2018-03-29T02:24:11.845Z,996.77
2018-03-29T02:25:11.844Z,996.76
2018-03-29T02:27:04.740Z,996.71
2018-03-29T02:28:04.753Z,996.69
2018-03-29T02:29:57.667Z,996.68
2018-03-29T02:30:57.664Z,996.70
2018-03-29T02:32:50.565Z,996.73
2018-03-29T02:33:50.575Z,996.75
2018-03-29T02:35:43.487Z,996.74
2018-03-29T02:36:43.491Z,996.78
2018-03-29T02:38:36.402Z,996.82
2018-03-29T02:39:36.395Z,996.84
2018-03-29T02:41:29.302Z,996.83
2018-03-29T02:42:29.311Z,996.86
2018-03-29T02:44:22.224Z,996.87
2018-03-29T02:45:22.219Z,996.92
2018-03-29T02:47:15.121Z,996.89
2018-03-29T02:48:15.136Z,996.88
2018-03-29T02:50:08.049Z,996.95
2018-03-29T02:51:08.044Z,996.91
2018-03-29T02:53:00.943Z,996.90
2018-03-29T02:54:00.955Z,996.90
2018-03-29T02:55:53.878Z,996.87
2018-03-29T02:56:53.868Z,996.95
2018-03-29T02:58:46.786Z,996.92
2018-03-29T02:59:46.782Z,996.96
2018-03-29T03:01:39.677Z,996.97
2018-03-29T03:02:39.692Z,996.96
2018-03-29T03:04:32.604Z,996.99
2018-03-29T03:05:32.599Z,997.04
2018-03-29T03:07:25.501Z,997.00
2018-03-29T03:08:25.516Z,997.09
2018-03-29T03:10:18.426Z,997.07
2018-03-29T03:11:18.427Z,997.04
2018-03-29T03:13:11.320Z,997.12
2018-03-29T03:14:11.334Z,997.06
2018-03-29T03:16:04.248Z,997.06
2018-03-29T03:17:04.285Z,997.11
2018-03-29T03:18:57.162Z,997.09
2018-03-29T03:19:57.158Z,997.19
2018-03-29T03:21:50.054Z,997.18
2018-03-29T03:22:50.070Z,997.20
2018-03-29T03:24:42.984Z,997.07
2018-03-29T03:25:42.979Z,997.24
2018-03-29T03:27:35.877Z,997.29
2018-03-29T03:28:35.889Z,997.30
2018-03-29T03:30:28.805Z,997.30
2018-03-29T03:31:28.801Z,997.35
2018-03-29T03:33:21.696Z,997.36
2018-03-29T03:34:21.710Z,997.36
2018-03-29T03:36:14.628Z,997.43
2018-03-29T03:37:14.626Z,997.46
2018-03-29T03:39:07.539Z,997.52
2018-03-29T03:40:07.541Z,997.54
2018-03-29T03:42:00.432Z,997.53
2018-03-29T03:43:00.514Z,997.56
2018-03-29T03:44:53.360Z,997.56
2018-03-29T03:45:53.358Z,997.53
2018-03-29T03:47:46.254Z,997.57
2018-03-29T03:48:46.268Z,997.58
2018-03-29T03:50:39.180Z,997.56
2018-03-29T03:51:39.174Z,997.54
2018-03-29T03:53:32.068Z,997.67
2018-03-29T03:54:32.083Z,997.61
2018-03-29T03:56:24.998Z,997.69
2018-03-29T03:57:24.994Z,997.69
2018-03-29T03:59:17.907Z,997.75
2018-03-29T04:00:17.902Z,997.74
2018-03-29T04:02:10.798Z,997.82
2018-03-29T04:03:10.816Z,997.77
2018-03-29T04:05:03.733Z,997.81
2018-03-29T04:06:03.727Z,997.78
2018-03-29T04:07:56.622Z,997.79
2018-03-29T04:08:56.639Z,997.82
2018-03-29T04:10:49.554Z,997.84
2018-03-29T04:11:49.547Z,997.85
2018-03-29T04:13:42.446Z,997.81
2018-03-29T04:14:42.456Z,997.83
2018-03-29T04:16:35.371Z,997.91
2018-03-29T04:17:35.370Z,997.86
2018-03-29T04:19:28.283Z,997.88
2018-03-29T04:20:28.280Z,997.94
2018-03-29T04:22:21.182Z,997.88
2018-03-29T04:23:21.195Z,997.93
2018-03-29T04:25:14.113Z,997.96
2018-03-29T04:26:14.107Z,997.97
2018-03-29T04:28:07.002Z,997.99
2018-03-29T04:29:07.019Z,998.01
2018-03-29T04:30:59.934Z,998.05
2018-03-29T04:31:59.930Z,998.00
2018-03-29T04:33:52.827Z,998.07
2018-03-29T04:34:52.840Z,998.05
2018-03-29T04:36:45.761Z,998.11
2018-03-29T04:37:45.755Z,998.10
2018-03-29T04:39:38.669Z,998.08
2018-03-29T04:40:38.664Z,998.12
2018-03-29T04:42:31.559Z,998.10
2018-03-29T04:43:31.574Z,998.10
2018-03-29T04:45:24.488Z,998.10
2018-03-29T04:46:24.485Z,998.10
2018-03-29T04:48:17.381Z,998.04
2018-03-29T04:49:17.397Z,998.13
2018-03-29T04:51:10.311Z,998.18
2018-03-29T04:52:10.309Z,998.11
2018-03-29T04:54:03.202Z,998.13
2018-03-29T04:55:03.217Z,998.15
2018-03-29T04:56:56.132Z,998.12
2018-03-29T04:57:56.131Z,998.08
2018-03-29T04:59:49.041Z,998.15
2018-03-29T05:00:49.038Z,998.22
2018-03-29T05:02:41.935Z,998.25
2018-03-29T05:03:41.955Z,998.25
2018-03-29T05:05:34.872Z,998.30
2018-03-29T05:06:34.867Z,998.28
2018-03-29T05:08:27.763Z,998.36
2018-03-29T05:09:27.779Z,998.38
2018-03-29T05:11:20.694Z,998.33
2018-03-29T05:12:20.692Z,998.40
2018-03-29T05:14:13.586Z,998.40
2018-03-29T05:15:13.600Z,998.39
2018-03-29T05:17:06.519Z,998.38
2018-03-29T05:18:06.513Z,998.42
2018-03-29T05:19:59.432Z,998.45
2018-03-29T05:20:59.429Z,998.42
2018-03-29T05:22:52.328Z,998.42
2018-03-29T05:23:52.340Z,998.44
2018-03-29T05:25:45.264Z,998.45
2018-03-29T05:26:45.259Z,998.47
2018-03-29T05:28:38.157Z,998.45
2018-03-29T05:29:38.167Z,998.45
2018-03-29T05:31:31.081Z,998.47
2018-03-29T05:32:31.078Z,998.47
2018-03-29T05:34:23.980Z,998.45
2018-03-29T05:35:23.996Z,998.44
2018-03-29T05:37:16.911Z,998.47
2018-03-29T05:38:16.909Z,998.47
2018-03-29T05:40:09.868Z,998.46
2018-03-29T05:41:09.823Z,998.45
2018-03-29T05:43:02.721Z,998.49
2018-03-29T05:44:02.736Z,998.45
2018-03-29T05:45:55.654Z,998.48
2018-03-29T05:46:55.659Z,998.52
2018-03-29T05:48:48.544Z,998.55
2018-03-29T05:49:48.565Z,998.55
2018-03-29T05:51:41.474Z,998.53
2018-03-29T05:52:41.472Z,998.54
2018-03-29T05:54:34.364Z,998.55
2018-03-29T05:55:34.380Z,998.53
2018-03-29T05:57:27.300Z,998.54
2018-03-29T05:58:27.298Z,998.53
2018-03-29T06:00:20.216Z,998.56
2018-03-29T06:01:20.209Z,998.58
2018-03-29T06:03:13.117Z,998.64
2018-03-29T06:04:13.124Z,998.65
2018-03-29T06:06:06.039Z,998.62
2018-03-29T06:07:06.035Z,998.64
2018-03-29T06:08:58.930Z,998.65
2018-03-29T06:09:58.947Z,998.57
2018-03-29T06:11:51.870Z,998.66
2018-03-29T06:12:51.861Z,998.70
2018-03-29T06:14:44.757Z,998.72
2018-03-29T06:15:44.775Z,998.77
2018-03-29T06:17:37.690Z,998.76
2018-03-29T06:18:37.686Z,998.73
2018-03-29T06:20:30.607Z,998.73
2018-03-29T06:21:30.607Z,998.75
2018-03-29T06:23:23.518Z,998.86
2018-03-29T06:24:23.519Z,998.79
2018-03-29T06:26:16.436Z,998.77
2018-03-29T06:27:16.432Z,998.81
2018-03-29T06:29:09.336Z,998.85
2018-03-29T06:30:09.401Z,998.85
2018-03-29T06:32:02.319Z,998.88
2018-03-29T06:33:02.261Z,998.85
2018-03-29T06:34:55.158Z,998.88
2018-03-29T06:35:55.171Z,998.87
2018-03-29T06:37:48.088Z,998.87
2018-03-29T06:38:48.086Z,998.83
2018-03-29T06:40:41.006Z,998.83
2018-03-29T06:41:41.001Z,998.86
2018-03-29T06:43:33.897Z,998.90
2018-03-29T06:44:33.913Z,998.89
2018-03-29T06:46:26.860Z,998.91
2018-03-29T06:47:26.832Z,998.90
2018-03-29T06:49:19.730Z,998.91
2018-03-29T06:50:19.744Z,998.92
2018-03-29T06:52:12.664Z,998.96
2018-03-29T06:53:12.659Z,998.95
2018-03-29T06:55:05.555Z,999.01
2018-03-29T06:56:05.573Z,999.04
2018-03-29T06:57:58.489Z,999.03
2018-03-29T06:58:58.487Z,999.00
2018-03-29T07:00:51.407Z,999.00
2018-03-29T07:01:51.401Z,998.97
2018-03-29T07:03:44.302Z,999.03
2018-03-29T07:04:44.317Z,999.01
2018-03-29T07:06:37.233Z,999.01
2018-03-29T07:07:37.233Z,999.02
2018-03-29T07:09:30.132Z,999.04
2018-03-29T07:10:30.146Z,999.05
2018-03-29T07:12:23.063Z,999.03
2018-03-29T07:13:23.062Z,999.06
2018-03-29T07:15:15.960Z,999.04
2018-03-29T07:16:15.979Z,999.04
2018-03-29T07:18:08.894Z,999.03
2018-03-29T07:19:08.895Z,999.03
2018-03-29T07:21:01.810Z,999.01
2018-03-29T07:22:01.808Z,999.04
2018-03-29T07:23:54.707Z,999.07
2018-03-29T07:24:54.733Z,999.09
2018-03-29T07:26:47.643Z,999.09
2018-03-29T07:27:47.641Z,999.08
2018-03-29T07:29:40.540Z,999.05
2018-03-29T07:30:40.557Z,999.07
2018-03-29T07:32:33.478Z,999.09
2018-03-29T07:33:33.474Z,999.08
2018-03-29T07:35:26.372Z,999.06
2018-03-29T07:36:26.400Z,999.04
2018-03-29T07:38:19.315Z,999.08
2018-03-29T07:39:19.313Z,999.10
2018-03-29T07:41:12.230Z,999.07
2018-03-29T07:42:12.227Z,999.11
2018-03-29T07:44:05.130Z,999.05
2018-03-29T07:45:05.149Z,999.08
2018-03-29T07:46:58.071Z,999.12
2018-03-29T07:47:58.079Z,999.15
2018-03-29T07:49:50.987Z,999.14
2018-03-29T07:50:51.007Z,999.12
2018-03-29T07:52:43.924Z,999.12
2018-03-29T07:53:43.924Z,999.14
2018-03-29T07:55:36.825Z,999.15
2018-03-29T07:56:36.844Z,999.13
2018-03-29T07:58:29.766Z,999.18
2018-03-29T07:59:29.764Z,999.17
2018-03-29T08:01:22.687Z,999.18
2018-03-29T08:02:22.680Z,999.18
2018-03-29T08:04:15.592Z,999.22
2018-03-29T08:05:15.605Z,999.18
2018-03-29T08:07:08.532Z,999.22
2018-03-29T08:08:08.532Z,999.19
2018-03-29T08:10:01.436Z,999.21
2018-03-29T08:11:01.449Z,999.21
2018-03-29T08:12:54.388Z,999.25
2018-03-29T08:13:54.371Z,999.23
2018-03-29T08:15:47.272Z,999.28
2018-03-29T08:16:47.290Z,999.27
2018-03-29T08:18:40.210Z,999.28
2018-03-29T08:19:40.213Z,999.30
2018-03-29T08:21:33.130Z,999.31
2018-03-29T08:22:33.130Z,999.32
2018-03-29T08:24:26.055Z,999.32
2018-03-29T08:25:26.076Z,999.33
2018-03-29T08:27:19.025Z,999.41
2018-03-29T08:28:18.993Z,999.42
2018-03-29T08:30:11.894Z,999.39
2018-03-29T08:31:11.914Z,999.44
2018-03-29T08:33:04.837Z,999.44
2018-03-29T08:34:04.834Z,999.41
2018-03-29T08:35:57.775Z,999.39
2018-03-29T08:36:57.789Z,999.40
2018-03-29T08:38:50.716Z,999.35
2018-03-29T08:39:50.716Z,999.43
2018-03-29T08:41:43.640Z,999.46
2018-03-29T08:42:43.749Z,999.43
2018-03-29T08:44:36.543Z,999.42
2018-03-29T08:45:36.559Z,999.44
2018-03-29T08:47:29.485Z,999.48
2018-03-29T08:48:29.483Z,999.52
2018-03-29T08:50:22.405Z,999.52
2018-03-29T08:51:22.457Z,999.52
2018-03-29T08:53:15.346Z,999.53
2018-03-29T08:54:15.346Z,999.58
2018-03-29T08:56:08.248Z,999.56
2018-03-29T08:57:08.267Z,999.60
2018-03-29T08:59:01.197Z,999.65
2018-03-29T09:00:01.191Z,999.63
2018-03-29T09:01:54.119Z,999.68
2018-03-29T09:02:54.120Z,999.63
2018-03-29T09:04:47.021Z,999.68
2018-03-29T09:05:47.039Z,999.67
2018-03-29T09:07:40.454Z,999.70
2018-03-29T09:08:40.455Z,999.71
2018-03-29T09:10:33.358Z,999.70
2018-03-29T09:11:33.376Z,999.75
2018-03-29T09:13:26.302Z,999.73
2018-03-29T09:14:26.302Z,999.79
2018-03-29T09:16:19.207Z,999.80
2018-03-29T09:17:19.225Z,999.82
2018-03-29T09:19:12.175Z,999.82
2018-03-29T09:20:12.154Z,999.79
2018-03-29T09:22:05.093Z,999.79
2018-03-29T09:23:05.092Z,999.83
2018-03-29T09:24:58.009Z,999.86
2018-03-29T09:25:58.038Z,999.90
2018-03-29T09:27:50.955Z,999.92
2018-03-29T09:28:50.957Z,999.89
2018-03-29T09:30:43.865Z,999.94
2018-03-29T09:31:43.888Z,999.97
2018-03-29T09:33:36.826Z,999.92
2018-03-29T09:34:36.825Z,999.97
2018-03-29T09:36:29.726Z,999.98
2018-03-29T09:37:29.746Z,999.98
2018-03-29T09:39:22.672Z,999.98
2018-03-29T09:40:22.668Z,999.96
2018-03-29T09:42:15.592Z,1000.00
2018-03-29T09:43:15.590Z,999.99
2018-03-29T09:45:08.499Z,999.99
2018-03-29T09:46:08.522Z,1000.01
2018-03-29T09:48:02.476Z,999.99
2018-03-29T09:49:01.440Z,999.99
2018-03-29T09:50:54.342Z,999.98
2018-03-29T09:51:54.363Z,999.95
2018-03-29T09:53:47.570Z,999.90
2018-03-29T09:54:47.687Z,999.98
2018-03-29T09:56:40.698Z,1000.00
2018-03-29T09:57:40.697Z,999.97
2018-03-29T09:59:33.671Z,999.95
2018-03-29T10:00:33.751Z,1000.01
2018-03-29T10:02:26.576Z,999.97
2018-03-29T10:03:26.577Z,999.99
2018-03-29T10:05:19.577Z,1000.03
2018-03-29T10:06:19.630Z,999.99
2018-03-29T10:08:12.874Z,1000.08
2018-03-29T10:09:12.582Z,1000.08
2018-03-29T10:11:06.795Z,1000.10
2018-03-29T10:12:06.822Z,1000.09
2018-03-29T10:14:00.876Z,1000.10
2018-03-29T10:15:01.014Z,1000.08
2018-03-29T10:16:53.782Z,1000.08
2018-03-29T10:17:53.818Z,1000.11
2018-03-29T10:19:46.760Z,1000.06
2018-03-29T10:20:46.764Z,1000.07
2018-03-29T10:22:39.676Z,1000.06
2018-03-29T10:23:39.680Z,1000.10
2018-03-29T10:25:32.606Z,1000.07
2018-03-29T10:26:32.623Z,1000.07
2018-03-29T10:28:25.546Z,1000.04
2018-03-29T10:29:25.548Z,1000.08
2018-03-29T10:31:18.451Z,1000.10
2018-03-29T10:32:18.485Z,1000.07
2018-03-29T10:34:11.395Z,1000.07
2018-03-29T10:35:11.397Z,1000.06
2018-03-29T10:37:04.333Z,1000.02
2018-03-29T10:38:04.353Z,1000.05
2018-03-29T10:39:57.666Z,1000.10
2018-03-29T10:40:57.670Z,1000.04
2018-03-29T10:42:50.597Z,1000.01
2018-03-29T10:43:50.601Z,1000.07
2018-03-29T10:45:43.503Z,1000.00
2018-03-29T10:46:43.526Z,1000.02
2018-03-29T10:48:37.298Z,1000.04
2018-03-29T10:49:36.463Z,1000.00
2018-03-29T10:51:29.406Z,1000.08
2018-03-29T10:52:29.444Z,1000.03
2018-03-29T10:54:22.383Z,1000.01
2018-03-29T10:55:22.374Z,1000.06
2018-03-29T10:57:15.297Z,1000.04
2018-03-29T10:58:15.318Z,1000.05
2018-03-29T11:00:08.258Z,1000.06
2018-03-29T11:01:08.243Z,1000.02
2018-03-29T11:03:01.184Z,1000.08
2018-03-29T11:04:01.190Z,1000.02
2018-03-29T11:05:54.101Z,1000.05
2018-03-29T11:06:54.128Z,1000.06
2018-03-29T11:08:47.051Z,1000.01
2018-03-29T11:09:47.051Z,1000.05
2018-03-29T11:11:39.969Z,1000.02
2018-03-29T11:12:39.986Z,1000.02
2018-03-29T11:14:33.412Z,1000.07
2018-03-29T11:15:33.408Z,1000.07
2018-03-29T11:17:26.311Z,1000.03
2018-03-29T11:18:26.330Z,1000.06
2018-03-29T11:20:19.260Z,1000.13
2018-03-29T11:21:19.255Z,1000.11
2018-03-29T11:23:12.182Z,1000.11
2018-03-29T11:24:12.183Z,1000.20
2018-03-29T11:26:05.090Z,1000.16
2018-03-29T11:27:05.112Z,1000.15
2018-03-29T11:28:58.039Z,1000.11
2018-03-29T11:29:58.038Z,1000.11
2018-03-29T11:31:50.948Z,1000.11
2018-03-29T11:32:50.961Z,1000.13
2018-03-29T11:34:43.888Z,1000.05
2018-03-29T11:35:43.888Z,1000.05
2018-03-29T11:37:36.798Z,1000.13
2018-03-29T11:38:36.818Z,1000.06
2018-03-29T11:40:29.743Z,1000.05
2018-03-29T11:41:29.745Z,1000.06
2018-03-29T11:43:22.672Z,1000.00
2018-03-29T11:44:22.688Z,1000.02
2018-03-29T11:46:15.585Z,1000.02
2018-03-29T11:47:15.606Z,1000.04
2018-03-29T11:49:08.528Z,1000.00
2018-03-29T11:50:08.533Z,999.98
2018-03-29T11:52:01.436Z,999.98
2018-03-29T11:53:01.455Z,999.96
2018-03-29T11:54:54.383Z,999.96
2018-03-29T11:55:54.381Z,999.94
2018-03-29T11:57:47.298Z,999.93
2018-03-29T11:58:47.311Z,999.96
2018-03-29T12:00:40.243Z,999.92
2018-03-29T12:01:40.243Z,1000.00
2018-03-29T12:03:33.172Z,999.91
2018-03-29T12:04:33.172Z,999.96
2018-03-29T12:06:26.078Z,999.99
2018-03-29T12:07:26.098Z,999.98
2018-03-29T12:09:19.028Z,999.95
2018-03-29T12:10:19.031Z,999.93
2018-03-29T12:12:12.121Z,999.90
2018-03-29T12:13:12.141Z,999.88
2018-03-29T12:15:05.076Z,999.89
2018-03-29T12:16:05.075Z,999.90
2018-03-29T12:17:58.988Z,999.92
2018-03-29T12:18:59.004Z,999.90
2018-03-29T12:20:51.929Z,999.85
2018-03-29T12:21:51.934Z,999.87
2018-03-29T12:23:44.863Z,999.96
2018-03-29T12:24:44.863Z,999.91
2018-03-29T12:26:37.770Z,999.89
2018-03-29T12:27:37.792Z,999.93
2018-03-29T12:29:30.883Z,999.87
2018-03-29T12:30:30.889Z,999.92
2018-03-29T12:32:23.797Z,999.90
2018-03-29T12:33:23.820Z,999.88
2018-03-29T12:35:16.760Z,999.89
2018-03-29T12:36:16.767Z,999.87
2018-03-29T12:38:09.676Z,999.86
2018-03-29T12:39:16.820Z,999.86
2018-03-29T12:41:02.634Z,999.80
2018-03-29T12:42:02.629Z,999.83
2018-03-29T12:43:55.549Z,999.83
2018-03-29T12:44:55.612Z,999.84
2018-03-29T12:46:48.497Z,999.85
2018-03-29T12:47:48.487Z,999.82
2018-03-29T12:49:41.407Z,999.76
2018-03-29T12:50:41.410Z,999.80
2018-03-29T12:52:34.329Z,999.74
2018-03-29T12:53:34.368Z,999.79
2018-03-29T12:55:27.796Z,999.72
2018-03-29T12:56:27.800Z,999.72
2018-03-29T12:58:20.710Z,999.76
2018-03-29T12:59:20.731Z,999.71
2018-03-29T13:01:13.660Z,999.74
2018-03-29T13:02:13.664Z,999.77
2018-03-29T13:04:06.641Z,999.71
2018-03-29T13:05:06.643Z,999.73
2018-03-29T13:06:59.556Z,999.68
2018-03-29T13:07:59.586Z,999.69
2018-03-29T13:09:52.510Z,999.65
2018-03-29T13:10:52.515Z,999.68
2018-03-29T13:12:45.421Z,999.67
2018-03-29T13:13:45.443Z,999.65
2018-03-29T13:15:38.386Z,999.62
2018-03-29T13:16:38.370Z,999.63
2018-03-29T13:18:31.295Z,999.63
2018-03-29T13:19:31.305Z,999.59
2018-03-29T13:21:24.433Z,999.59
2018-03-29T13:22:24.493Z,999.61
2018-03-29T13:24:17.364Z,999.59
2018-03-29T13:25:17.422Z,999.53
2018-03-29T13:27:10.279Z,999.57
2018-03-29T13:28:10.301Z,999.58
2018-03-29T13:30:03.232Z,999.59
2018-03-29T13:31:03.232Z,999.56
2018-03-29T13:32:56.632Z,999.54
2018-03-29T13:33:56.654Z,999.57
2018-03-29T13:35:49.580Z,999.58
2018-03-29T13:36:49.581Z,999.59
2018-03-29T13:38:42.486Z,999.60
2018-03-29T13:39:42.513Z,999.57
2018-03-29T13:41:35.434Z,999.59
2018-03-29T13:42:35.438Z,999.60
2018-03-29T13:44:28.402Z,999.62
2018-03-29T13:45:28.404Z,999.64
2018-03-29T13:47:21.313Z,999.61
2018-03-29T13:48:21.334Z,999.63
2018-03-29T13:50:14.263Z,999.64
2018-03-29T13:51:14.267Z,999.60
2018-03-29T13:53:07.175Z,999.64
2018-03-29T13:54:07.218Z,999.68
2018-03-29T13:56:00.125Z,999.67
2018-03-29T13:57:00.126Z,999.69
2018-03-29T13:58:53.032Z,999.71
2018-03-29T13:59:53.122Z,999.70
2018-03-29T14:01:46.204Z,999.71
2018-03-29T14:02:46.210Z,999.71
2018-03-29T14:04:39.151Z,999.68
2018-03-29T14:05:39.136Z,999.68
2018-03-29T14:07:32.043Z,999.68
2018-03-29T14:08:32.063Z,999.69
2018-03-29T14:10:25.004Z,999.72
2018-03-29T14:11:25.007Z,999.73
2018-03-29T14:13:17.917Z,999.75
2018-03-29T14:14:17.936Z,999.88
2018-03-29T14:16:10.910Z,999.92
2018-03-29T14:17:10.862Z,999.98
2018-03-29T14:19:03.793Z,999.96
2018-03-29T14:20:03.841Z,999.92
2018-03-29T14:21:56.760Z,999.97
2018-03-29T14:22:56.779Z,1000.02
2018-03-29T14:24:49.774Z,1000.03
2018-03-29T14:25:49.663Z,1000.07
2018-03-29T14:27:42.593Z,1000.02
2018-03-29T14:28:42.585Z,1000.00
2018-03-29T14:30:35.733Z,1000.02
2018-03-29T14:31:35.698Z,999.97
2018-03-29T14:33:28.594Z,1000.01
2018-03-29T14:34:28.626Z,1000.03
2018-03-29T14:36:21.524Z,999.92
2018-03-29T14:37:21.526Z,999.90
2018-03-29T14:39:14.436Z,999.90
2018-03-29T14:40:14.460Z,999.91
2018-03-29T14:42:07.382Z,999.92
2018-03-29T14:43:07.407Z,999.98
2018-03-29T14:45:00.307Z,1000.00
2018-03-29T14:46:00.307Z,999.96
2018-03-29T14:47:53.276Z,999.97
2018-03-29T14:48:53.239Z,999.97
2018-03-29T14:50:46.757Z,999.93
2018-03-29T14:51:46.212Z,999.92
2018-03-29T14:53:39.123Z,999.95
2018-03-29T14:54:39.105Z,999.92
2018-03-29T14:56:32.544Z,999.90
2018-03-29T14:57:32.513Z,999.90
2018-03-29T14:59:25.499Z,999.89
2018-03-29T15:00:25.463Z,999.88
2018-03-29T15:02:18.768Z,999.91
2018-03-29T15:03:19.064Z,999.91
2018-03-29T15:05:11.877Z,999.93
2018-03-29T15:06:11.870Z,999.92
2018-03-29T15:08:04.822Z,999.90
2018-03-29T15:09:04.802Z,999.91
2018-03-29T15:10:57.733Z,999.92
2018-03-29T15:11:57.738Z,1000.00
2018-03-29T15:13:51.196Z,999.93
2018-03-29T15:14:51.177Z,999.95
2018-03-29T15:16:44.615Z,999.94
2018-03-29T15:17:44.608Z,999.95
2018-03-29T15:19:37.539Z,999.96
2018-03-29T15:20:37.577Z,999.98
2018-03-29T15:22:31.466Z,999.92
2018-03-29T15:23:31.462Z,999.95
2018-03-29T15:25:24.399Z,999.95
2018-03-29T15:26:24.416Z,999.94
2018-03-29T15:28:17.317Z,999.96
2018-03-29T15:29:17.334Z,999.95
2018-03-29T15:31:11.296Z,999.95
2018-03-29T15:32:11.299Z,999.98
2018-03-29T15:34:04.205Z,999.94
2018-03-29T15:35:04.223Z,999.99
2018-03-29T15:36:58.072Z,1000.01
2018-03-29T15:37:57.163Z,1000.02
2018-03-29T15:39:50.061Z,1000.08
2018-03-29T15:40:50.081Z,1000.05
2018-03-29T15:42:43.011Z,1000.06
2018-03-29T15:43:43.009Z,1000.07
2018-03-29T15:45:35.936Z,1000.06
2018-03-29T15:46:35.935Z,1000.17
2018-03-29T15:48:28.848Z,1000.11
2018-03-29T15:49:28.864Z,1000.10
2018-03-29T15:51:21.788Z,1000.22
2018-03-29T15:52:21.793Z,1000.26
2018-03-29T15:54:14.692Z,1000.20
2018-03-29T15:55:14.712Z,1000.19
2018-03-29T15:57:07.633Z,1000.20
2018-03-29T15:58:07.634Z,1000.19
2018-03-29T16:00:00.537Z,1000.20
2018-03-29T16:01:00.554Z,1000.24
2018-03-29T16:02:53.476Z,1000.21
2018-03-29T16:03:53.484Z,1000.20
2018-03-29T16:05:46.407Z,1000.19
2018-03-29T16:06:46.418Z,1000.14
2018-03-29T16:08:40.334Z,1000.12
2018-03-29T16:09:40.355Z,1000.17
2018-03-29T16:11:33.278Z,1000.19
2018-03-29T16:12:33.297Z,1000.22
2018-03-29T16:14:26.182Z,1000.20
2018-03-29T16:15:26.197Z,1000.21
2018-03-29T16:17:19.166Z,1000.22
2018-03-29T16:18:19.123Z,1000.17
2018-03-29T16:20:12.037Z,1000.14
2018-03-29T16:21:12.049Z,1000.17
2018-03-29T16:23:05.157Z,1000.17
2018-03-29T16:24:05.158Z,1000.18
2018-03-29T16:25:58.080Z,1000.16
2018-03-29T16:26:58.080Z,1000.16
2018-03-29T16:28:50.986Z,1000.16
2018-03-29T16:29:51.000Z,1000.18
2018-03-29T16:31:43.919Z,1000.18
2018-03-29T16:32:43.925Z,1000.21
2018-03-29T16:34:36.826Z,1000.17
2018-03-29T16:35:36.846Z,1000.22
2018-03-29T16:37:29.766Z,1000.24
2018-03-29T16:38:29.788Z,1000.23
2018-03-29T16:40:22.667Z,1000.30
2018-03-29T16:41:22.684Z,1000.29
2018-03-29T16:43:15.657Z,1000.33
2018-03-29T16:44:15.604Z,1000.31
2018-03-29T16:46:08.524Z,1000.35
2018-03-29T16:47:08.570Z,1000.30
2018-03-29T16:49:01.477Z,1000.35
2018-03-29T16:50:01.469Z,1000.35
2018-03-29T16:51:54.364Z,1000.33
2018-03-29T16:52:54.369Z,1000.31
2018-03-29T16:54:47.437Z,1000.31
2018-03-29T16:55:47.455Z,1000.32
2018-03-29T16:57:40.372Z,1000.32
2018-03-29T16:58:40.377Z,1000.34
2018-03-29T17:00:33.275Z,1000.35
2018-03-29T17:01:33.337Z,1000.36
2018-03-29T17:03:26.217Z,1000.42
2018-03-29T17:04:26.212Z,1000.37
2018-03-29T17:06:19.141Z,1000.39
2018-03-29T17:07:19.137Z,1000.39
2018-03-29T17:09:12.042Z,1000.41
2018-03-29T17:10:12.061Z,1000.44
2018-03-29T17:12:04.981Z,1000.47
2018-03-29T17:13:05.004Z,1000.45
2018-03-29T17:14:57.881Z,1000.46
2018-03-29T17:15:57.902Z,1000.47
2018-03-29T17:17:50.841Z,1000.48
2018-03-29T17:18:50.819Z,1000.49
2018-03-29T17:20:43.721Z,1000.51
2018-03-29T17:21:43.737Z,1000.55
2018-03-29T17:23:36.664Z,1000.56
2018-03-29T17:24:36.655Z,1000.56
2018-03-29T17:26:29.574Z,1000.58
2018-03-29T17:27:29.573Z,1000.59
2018-03-29T17:29:22.479Z,1000.60
2018-03-29T17:30:22.499Z,1000.60
2018-03-29T17:32:15.415Z,1000.62
2018-03-29T17:33:15.413Z,1000.63
2018-03-29T17:35:08.317Z,1000.64
2018-03-29T17:36:08.366Z,1000.66
2018-03-29T17:38:01.252Z,1000.68
2018-03-29T17:39:01.265Z,1000.67
2018-03-29T17:40:54.158Z,1000.72
2018-03-29T17:41:54.176Z,1000.71
2018-03-29T17:43:47.097Z,1000.74
2018-03-29T17:44:47.087Z,1000.74
2018-03-29T17:46:40.011Z,1000.72
2018-03-29T17:47:40.010Z,1000.75
2018-03-29T17:49:32.911Z,1000.72